sensor_id;sensor_type;location;lat;lon;timestamp;temperature;humidity
47757;SHT35;22147;52.388;13.390;2024-03-17T00:00:15;3.40;78.42
47757;SHT35;22147;52.388;13.390;2024-03-17T00:02:47;3.28;78.93
47757;SHT35;22147;52.388;13.390;2024-03-17T00:05:15;3.16;79.23
47757;SHT35;22147;52.388;13.390;2024-03-17T00:07:44;3.12;79.54
47757;SHT35;22147;52.388;13.390;2024-03-17T00:10:13;3.05;79.70
47757;SHT35;22147;52.388;13.390;2024-03-17T00:12:44;3.05;79.72
47757;SHT35;22147;52.388;13.390;2024-03-17T00:15:12;2.99;80.03
47757;SHT35;22147;52.388;13.390;2024-03-17T00:17:43;2.92;80.16
47757;SHT35;22147;52.388;13.390;2024-03-17T00:20:13;2.90;80.35
47757;SHT35;22147;52.388;13.390;2024-03-17T00:22:49;2.90;80.36
47757;SHT35;22147;52.388;13.390;2024-03-17T00:25:20;2.92;80.44
47757;SHT35;22147;52.388;13.390;2024-03-17T00:27:48;3.04;80.19
47757;SHT35;22147;52.388;13.390;2024-03-17T00:30:19;3.12;79.69
47757;SHT35;22147;52.388;13.390;2024-03-17T00:32:48;3.09;79.51
47757;SHT35;22147;52.388;13.390;2024-03-17T00:35:17;3.07;79.51
47757;SHT35;22147;52.388;13.390;2024-03-17T00:37:50;3.07;79.45
47757;SHT35;22147;52.388;13.390;2024-03-17T00:40:18;2.97;79.59
47757;SHT35;22147;52.388;13.390;2024-03-17T00:42:47;2.91;79.87
47757;SHT35;22147;52.388;13.390;2024-03-17T00:45:15;2.91;79.98
47757;SHT35;22147;52.388;13.390;2024-03-17T00:47:42;2.98;80.25
47757;SHT35;22147;52.388;13.390;2024-03-17T00:50:11;3.01;79.92
47757;SHT35;22147;52.388;13.390;2024-03-17T00:52:39;2.98;79.81
47757;SHT35;22147;52.388;13.390;2024-03-17T00:55:07;2.94;79.97
47757;SHT35;22147;52.388;13.390;2024-03-17T00:57:34;3.04;80.06
47757;SHT35;22147;52.388;13.390;2024-03-17T01:00:01;2.97;79.82
47757;SHT35;22147;52.388;13.390;2024-03-17T01:02:30;2.87;80.16
47757;SHT35;22147;52.388;13.390;2024-03-17T01:04:56;2.83;80.38
47757;SHT35;22147;52.388;13.390;2024-03-17T01:07:25;2.73;80.56
47757;SHT35;22147;52.388;13.390;2024-03-17T01:09:51;2.61;80.95
47757;SHT35;22147;52.388;13.390;2024-03-17T01:12:20;2.58;81.22
47757;SHT35;22147;52.388;13.390;2024-03-17T01:14:47;2.60;81.26
47757;SHT35;22147;52.388;13.390;2024-03-17T01:17:15;2.49;81.33
47757;SHT35;22147;52.388;13.390;2024-03-17T01:19:42;2.37;81.64
47757;SHT35;22147;52.388;13.390;2024-03-17T01:22:11;2.34;81.92
47757;SHT35;22147;52.388;13.390;2024-03-17T01:24:37;2.34;82.08
47757;SHT35;22147;52.388;13.390;2024-03-17T01:27:10;2.36;82.08
47757;SHT35;22147;52.388;13.390;2024-03-17T01:29:43;2.26;82.08
47757;SHT35;22147;52.388;13.390;2024-03-17T01:32:12;2.15;82.35
47757;SHT35;22147;52.388;13.390;2024-03-17T01:34:41;2.05;82.60
47757;SHT35;22147;52.388;13.390;2024-03-17T01:37:10;1.97;83.15
47757;SHT35;22147;52.388;13.390;2024-03-17T01:39:39;1.95;83.37
47757;SHT35;22147;52.388;13.390;2024-03-17T01:42:08;1.94;83.46
47757;SHT35;22147;52.388;13.390;2024-03-17T01:44:37;1.91;83.43
47757;SHT35;22147;52.388;13.390;2024-03-17T01:47:07;1.84;83.64
47757;SHT35;22147;52.388;13.390;2024-03-17T01:49:37;1.82;83.69
47757;SHT35;22147;52.388;13.390;2024-03-17T01:52:07;1.82;83.81
47757;SHT35;22147;52.388;13.390;2024-03-17T01:54:36;1.90;83.70
47757;SHT35;22147;52.388;13.390;2024-03-17T01:57:06;1.92;83.54
47757;SHT35;22147;52.388;13.390;2024-03-17T01:59:36;1.85;83.47
47757;SHT35;22147;52.388;13.390;2024-03-17T02:02:05;1.90;83.49
47757;SHT35;22147;52.388;13.390;2024-03-17T02:04:34;1.84;83.38
47757;SHT35;22147;52.388;13.390;2024-03-17T02:07:03;1.81;83.42
47757;SHT35;22147;52.388;13.390;2024-03-17T02:09:32;1.75;83.43
47757;SHT35;22147;52.388;13.390;2024-03-17T02:12:01;1.70;83.49
47757;SHT35;22147;52.388;13.390;2024-03-17T02:14:31;1.67;83.59
47757;SHT35;22147;52.388;13.390;2024-03-17T02:17:00;1.63;83.68
47757;SHT35;22147;52.388;13.390;2024-03-17T02:19:29;1.61;83.67
47757;SHT35;22147;52.388;13.390;2024-03-17T02:21:58;1.48;83.72
47757;SHT35;22147;52.388;13.390;2024-03-17T02:24:27;1.40;83.98
47757;SHT35;22147;52.388;13.390;2024-03-17T02:26:56;1.36;84.10
47757;SHT35;22147;52.388;13.390;2024-03-17T02:29:25;1.29;84.24
47757;SHT35;22147;52.388;13.390;2024-03-17T02:31:54;1.32;84.33
47757;SHT35;22147;52.388;13.390;2024-03-17T02:34:23;1.32;84.35
47757;SHT35;22147;52.388;13.390;2024-03-17T02:36:52;1.26;84.30
47757;SHT35;22147;52.388;13.390;2024-03-17T02:39:21;1.27;84.40
47757;SHT35;22147;52.388;13.390;2024-03-17T02:42:07;1.29;84.42
47757;SHT35;22147;52.388;13.390;2024-03-17T02:44:38;1.22;84.28
47757;SHT35;22147;52.388;13.390;2024-03-17T02:47:09;1.16;84.39
47757;SHT35;22147;52.388;13.390;2024-03-17T02:49:38;1.12;84.66
47757;SHT35;22147;52.388;13.390;2024-03-17T02:52:12;1.13;84.76
47757;SHT35;22147;52.388;13.390;2024-03-17T02:54:41;1.12;84.78
47757;SHT35;22147;52.388;13.390;2024-03-17T02:57:10;1.06;84.86
47757;SHT35;22147;52.388;13.390;2024-03-17T02:59:40;0.99;85.03
47757;SHT35;22147;52.388;13.390;2024-03-17T03:02:09;1.09;85.30
47757;SHT35;22147;52.388;13.390;2024-03-17T03:04:38;1.17;85.23
47757;SHT35;22147;52.388;13.390;2024-03-17T03:07:07;1.13;85.24
47757;SHT35;22147;52.388;13.390;2024-03-17T03:09:36;1.09;85.30
47757;SHT35;22147;52.388;13.390;2024-03-17T03:12:06;1.20;85.57
47757;SHT35;22147;52.388;13.390;2024-03-17T03:14:36;1.23;85.39
47757;SHT35;22147;52.388;13.390;2024-03-17T03:17:05;1.26;85.34
47757;SHT35;22147;52.388;13.390;2024-03-17T03:19:34;1.32;85.45
47757;SHT35;22147;52.388;13.390;2024-03-17T03:22:03;1.40;85.37
47757;SHT35;22147;52.388;13.390;2024-03-17T03:24:32;1.47;85.24
47757;SHT35;22147;52.388;13.390;2024-03-17T03:27:01;1.44;85.17
47757;SHT35;22147;52.388;13.390;2024-03-17T03:29:30;1.46;85.27
47757;SHT35;22147;52.388;13.390;2024-03-17T03:31:59;1.44;85.40
47757;SHT35;22147;52.388;13.390;2024-03-17T03:34:28;1.46;85.50
47757;SHT35;22147;52.388;13.390;2024-03-17T03:36:57;1.60;85.61
47757;SHT35;22147;52.388;13.390;2024-03-17T03:39:26;1.75;85.26
47757;SHT35;22147;52.388;13.390;2024-03-17T03:42:00;1.63;84.93
47757;SHT35;22147;52.388;13.390;2024-03-17T03:44:29;1.68;85.22
47757;SHT35;22147;52.388;13.390;2024-03-17T03:46:58;1.65;85.09
47757;SHT35;22147;52.388;13.390;2024-03-17T03:49:29;1.54;85.22
47757;SHT35;22147;52.388;13.390;2024-03-17T03:51:59;1.54;85.57
47757;SHT35;22147;52.388;13.390;2024-03-17T03:54:28;1.57;85.69
47757;SHT35;22147;52.388;13.390;2024-03-17T03:56:57;1.53;85.80
47757;SHT35;22147;52.388;13.390;2024-03-17T03:59:26;1.50;86.00
47757;SHT35;22147;52.388;13.390;2024-03-17T04:01:55;1.46;86.23
47757;SHT35;22147;52.388;13.390;2024-03-17T04:04:23;1.63;86.49
47757;SHT35;22147;52.388;13.390;2024-03-17T04:06:52;1.64;86.26
47757;SHT35;22147;52.388;13.390;2024-03-17T04:09:21;1.53;86.12
47757;SHT35;22147;52.388;13.390;2024-03-17T04:11:50;1.50;86.32
47757;SHT35;22147;52.388;13.390;2024-03-17T04:14:19;1.58;86.72
47757;SHT35;22147;52.388;13.390;2024-03-17T04:16:48;1.58;86.54
47757;SHT35;22147;52.388;13.390;2024-03-17T04:19:17;1.58;86.66
47757;SHT35;22147;52.388;13.390;2024-03-17T04:21:46;1.47;86.60
47757;SHT35;22147;52.388;13.390;2024-03-17T04:24:15;1.61;87.02
47757;SHT35;22147;52.388;13.390;2024-03-17T04:26:44;1.60;86.67
47757;SHT35;22147;52.388;13.390;2024-03-17T04:29:12;1.46;86.64
47757;SHT35;22147;52.388;13.390;2024-03-17T04:31:39;1.47;87.01
47757;SHT35;22147;52.388;13.390;2024-03-17T04:34:07;1.55;87.36
47757;SHT35;22147;52.388;13.390;2024-03-17T04:36:35;1.51;87.17
47757;SHT35;22147;52.388;13.390;2024-03-17T04:39:03;1.47;87.22
47757;SHT35;22147;52.388;13.390;2024-03-17T04:41:36;1.46;87.41
47757;SHT35;22147;52.388;13.390;2024-03-17T04:44:07;1.40;87.40
47757;SHT35;22147;52.388;13.390;2024-03-17T04:46:35;1.32;87.44
47757;SHT35;22147;52.388;13.390;2024-03-17T04:49:05;1.30;87.65
47757;SHT35;22147;52.388;13.390;2024-03-17T04:51:34;1.23;87.70
47757;SHT35;22147;52.388;13.390;2024-03-17T04:54:03;1.15;87.83
47757;SHT35;22147;52.388;13.390;2024-03-17T04:56:33;1.07;88.00
47757;SHT35;22147;52.388;13.390;2024-03-17T04:59:02;1.03;88.20
47757;SHT35;22147;52.388;13.390;2024-03-17T05:01:31;1.05;88.43
47757;SHT35;22147;52.388;13.390;2024-03-17T05:04:05;1.12;88.68
47757;SHT35;22147;52.388;13.390;2024-03-17T05:06:33;1.16;88.77
47757;SHT35;22147;52.388;13.390;2024-03-17T05:09:03;1.09;88.75
47757;SHT35;22147;52.388;13.390;2024-03-17T05:11:33;1.02;88.78
47757;SHT35;22147;52.388;13.390;2024-03-17T05:14:04;0.99;88.92
47757;SHT35;22147;52.388;13.390;2024-03-17T05:16:33;0.97;89.02
47757;SHT35;22147;52.388;13.390;2024-03-17T05:19:02;1.00;89.12
47757;SHT35;22147;52.388;13.390;2024-03-17T05:21:32;0.93;89.12
47757;SHT35;22147;52.388;13.390;2024-03-17T05:24:02;0.85;89.14
47757;SHT35;22147;52.388;13.390;2024-03-17T05:26:31;0.81;89.24
47757;SHT35;22147;52.388;13.390;2024-03-17T05:29:00;0.82;89.38
47757;SHT35;22147;52.388;13.390;2024-03-17T05:31:29;0.82;89.49
47757;SHT35;22147;52.388;13.390;2024-03-17T05:34:00;0.89;89.57
47757;SHT35;22147;52.388;13.390;2024-03-17T05:36:29;0.86;89.61
47757;SHT35;22147;52.388;13.390;2024-03-17T05:39:01;0.92;89.72
47757;SHT35;22147;52.388;13.390;2024-03-17T05:41:30;0.93;89.71
47757;SHT35;22147;52.388;13.390;2024-03-17T05:43:59;0.92;89.73
47757;SHT35;22147;52.388;13.390;2024-03-17T05:46:31;0.88;89.75
47757;SHT35;22147;52.388;13.390;2024-03-17T05:48:57;0.88;89.70
47757;SHT35;22147;52.388;13.390;2024-03-17T05:51:26;0.85;89.70
47757;SHT35;22147;52.388;13.390;2024-03-17T05:53:56;0.95;89.84
47757;SHT35;22147;52.388;13.390;2024-03-17T05:56:27;1.00;89.81
47757;SHT35;22147;52.388;13.390;2024-03-17T05:58:56;1.03;89.78
47757;SHT35;22147;52.388;13.390;2024-03-17T06:01:25;1.15;89.79
47757;SHT35;22147;52.388;13.390;2024-03-17T06:03:53;1.22;89.76
47757;SHT35;22147;52.388;13.390;2024-03-17T06:06:22;1.36;89.78
47757;SHT35;22147;52.388;13.390;2024-03-17T06:08:51;1.53;89.79
47757;SHT35;22147;52.388;13.390;2024-03-17T06:11:20;1.68;89.57
47757;SHT35;22147;52.388;13.390;2024-03-17T06:13:49;1.72;89.40
47757;SHT35;22147;52.388;13.390;2024-03-17T06:16:19;1.86;89.23
47757;SHT35;22147;52.388;13.390;2024-03-17T06:18:49;1.97;88.89
47757;SHT35;22147;52.388;13.390;2024-03-17T06:21:20;2.08;88.76
47757;SHT35;22147;52.388;13.390;2024-03-17T06:23:49;2.28;88.36
47757;SHT35;22147;52.388;13.390;2024-03-17T06:26:18;2.46;87.83
47757;SHT35;22147;52.388;13.390;2024-03-17T06:28:47;2.50;87.31
47757;SHT35;22147;52.388;13.390;2024-03-17T06:31:16;2.51;87.26
47757;SHT35;22147;52.388;13.390;2024-03-17T06:33:45;2.83;86.92
47757;SHT35;22147;52.388;13.390;2024-03-17T06:36:14;3.05;85.74
47757;SHT35;22147;52.388;13.390;2024-03-17T06:38:43;3.04;85.22
47757;SHT35;22147;52.388;13.390;2024-03-17T06:41:12;3.09;85.26
47757;SHT35;22147;52.388;13.390;2024-03-17T06:43:43;3.16;85.32
47757;SHT35;22147;52.388;13.390;2024-03-17T06:46:13;3.35;85.35
47757;SHT35;22147;52.388;13.390;2024-03-17T06:48:42;3.49;85.05
47757;SHT35;22147;52.388;13.390;2024-03-17T06:51:11;3.64;84.71
47757;SHT35;22147;52.388;13.390;2024-03-17T06:53:40;3.86;83.89
47757;SHT35;22147;52.388;13.390;2024-03-17T06:56:09;4.07;83.02
47757;SHT35;22147;52.388;13.390;2024-03-17T06:58:38;4.38;81.38
47757;SHT35;22147;52.388;13.390;2024-03-17T07:01:09;4.44;81.18
47757;SHT35;22147;52.388;13.390;2024-03-17T07:03:38;4.69;80.57
47757;SHT35;22147;52.388;13.390;2024-03-17T07:06:07;4.93;79.04
47757;SHT35;22147;52.388;13.390;2024-03-17T07:08:36;5.05;77.81
47757;SHT35;22147;52.388;13.390;2024-03-17T07:11:07;5.31;77.74
47757;SHT35;22147;52.388;13.390;2024-03-17T07:13:38;5.28;76.71
47757;SHT35;22147;52.388;13.390;2024-03-17T07:16:08;5.31;75.70
47757;SHT35;22147;52.388;13.390;2024-03-17T07:18:36;5.31;75.67
47757;SHT35;22147;52.388;13.390;2024-03-17T07:21:05;5.24;75.26
47757;SHT35;22147;52.388;13.390;2024-03-17T07:23:34;5.07;75.67
47757;SHT35;22147;52.388;13.390;2024-03-17T07:26:04;5.14;75.65
47757;SHT35;22147;52.388;13.390;2024-03-17T07:28:38;5.15;75.35
47757;SHT35;22147;52.388;13.390;2024-03-17T07:31:10;5.18;75.47
47757;SHT35;22147;52.388;13.390;2024-03-17T07:33:38;5.15;75.04
47757;SHT35;22147;52.388;13.390;2024-03-17T07:36:08;5.28;74.45
47757;SHT35;22147;52.388;13.390;2024-03-17T07:38:39;5.34;75.01
47757;SHT35;22147;52.388;13.390;2024-03-17T07:41:09;5.36;73.84
47757;SHT35;22147;52.388;13.390;2024-03-17T07:43:39;5.45;74.47
47757;SHT35;22147;52.388;13.390;2024-03-17T07:46:12;5.86;72.70
47757;SHT35;22147;52.388;13.390;2024-03-17T07:48:44;6.14;71.11
47757;SHT35;22147;52.388;13.390;2024-03-17T07:51:14;5.76;70.90
47757;SHT35;22147;52.388;13.390;2024-03-17T07:53:46;5.62;72.58
47757;SHT35;22147;52.388;13.390;2024-03-17T07:56:17;5.90;72.41
47757;SHT35;22147;52.388;13.390;2024-03-17T07:58:46;6.48;70.00
47757;SHT35;22147;52.388;13.390;2024-03-17T08:01:17;6.69;70.41
47757;SHT35;22147;52.388;13.390;2024-03-17T08:03:47;6.80;68.76
47757;SHT35;22147;52.388;13.390;2024-03-17T08:06:24;7.13;68.29
47757;SHT35;22147;52.388;13.390;2024-03-17T08:08:53;7.41;67.18
47757;SHT35;22147;52.388;13.390;2024-03-17T08:11:23;7.57;66.94
47757;SHT35;22147;52.388;13.390;2024-03-17T08:13:55;7.86;65.63
47757;SHT35;22147;52.388;13.390;2024-03-17T08:16:24;8.19;65.55
47757;SHT35;22147;52.388;13.390;2024-03-17T08:18:53;7.99;63.59
47757;SHT35;22147;52.388;13.390;2024-03-17T08:21:22;8.14;63.52
47757;SHT35;22147;52.388;13.390;2024-03-17T08:23:51;7.92;64.30
47757;SHT35;22147;52.388;13.390;2024-03-17T08:26:20;8.20;63.00
47757;SHT35;22147;52.388;13.390;2024-03-17T08:28:49;8.30;63.53
47757;SHT35;22147;52.388;13.390;2024-03-17T08:31:18;8.53;61.09
47757;SHT35;22147;52.388;13.390;2024-03-17T08:33:47;8.58;60.89
47757;SHT35;22147;52.388;13.390;2024-03-17T08:36:18;8.58;61.44
47757;SHT35;22147;52.388;13.390;2024-03-17T08:38:48;8.58;61.56
47757;SHT35;22147;52.388;13.390;2024-03-17T08:41:17;8.85;61.16
47757;SHT35;22147;52.388;13.390;2024-03-17T08:43:46;8.60;60.25
47757;SHT35;22147;52.388;13.390;2024-03-17T08:46:16;8.26;61.33
47757;SHT35;22147;52.388;13.390;2024-03-17T08:48:45;7.86;61.38
47757;SHT35;22147;52.388;13.390;2024-03-17T08:51:13;7.81;62.18
47757;SHT35;22147;52.388;13.390;2024-03-17T08:53:42;8.06;61.67
47757;SHT35;22147;52.388;13.390;2024-03-17T08:56:12;8.09;60.82
47757;SHT35;22147;52.388;13.390;2024-03-17T08:58:41;8.30;60.93
47757;SHT35;22147;52.388;13.390;2024-03-17T09:01:15;8.17;60.96
47757;SHT35;22147;52.388;13.390;2024-03-17T09:03:45;8.00;61.88
47757;SHT35;22147;52.388;13.390;2024-03-17T09:06:17;8.09;61.36
47757;SHT35;22147;52.388;13.390;2024-03-17T09:08:45;7.88;61.80
47757;SHT35;22147;52.388;13.390;2024-03-17T09:11:14;8.06;61.64
47757;SHT35;22147;52.388;13.390;2024-03-17T09:13:43;8.44;60.86
47757;SHT35;22147;52.388;13.390;2024-03-17T09:16:12;8.86;58.61
47757;SHT35;22147;52.388;13.390;2024-03-17T09:18:42;8.81;59.63
47757;SHT35;22147;52.388;13.390;2024-03-17T09:21:11;8.60;59.74
47757;SHT35;22147;52.388;13.390;2024-03-17T09:23:42;8.61;59.65
47757;SHT35;22147;52.388;13.390;2024-03-17T09:26:11;8.92;59.78
47757;SHT35;22147;52.388;13.390;2024-03-17T09:28:43;9.48;57.19
47757;SHT35;22147;52.388;13.390;2024-03-17T09:31:12;10.15;56.70
47757;SHT35;22147;52.388;13.390;2024-03-17T09:33:41;10.45;55.04
47757;SHT35;22147;52.388;13.390;2024-03-17T09:36:10;10.19;54.21
47757;SHT35;22147;52.388;13.390;2024-03-17T09:38:43;9.44;56.23
47757;SHT35;22147;52.388;13.390;2024-03-17T09:41:24;9.43;56.29
47757;SHT35;22147;52.388;13.390;2024-03-17T09:43:58;9.13;56.26
47757;SHT35;22147;52.388;13.390;2024-03-17T09:46:27;8.81;58.79
47757;SHT35;22147;52.388;13.390;2024-03-17T09:48:57;9.05;58.54
47757;SHT35;22147;52.388;13.390;2024-03-17T09:51:27;9.15;56.59
47757;SHT35;22147;52.388;13.390;2024-03-17T09:53:56;9.08;56.81
47757;SHT35;22147;52.388;13.390;2024-03-17T09:56:24;9.33;56.27
47757;SHT35;22147;52.388;13.390;2024-03-17T09:58:53;8.99;55.74
47757;SHT35;22147;52.388;13.390;2024-03-17T10:01:23;8.65;56.82
47757;SHT35;22147;52.388;13.390;2024-03-17T10:03:53;9.36;58.20
47757;SHT35;22147;52.388;13.390;2024-03-17T10:06:46;9.82;54.06
47757;SHT35;22147;52.388;13.390;2024-03-17T10:09:17;10.43;54.40
47757;SHT35;22147;52.388;13.390;2024-03-17T10:11:50;10.55;53.65
47757;SHT35;22147;52.388;13.390;2024-03-17T10:14:19;10.78;52.14
47757;SHT35;22147;52.388;13.390;2024-03-17T10:16:48;10.83;52.73
47757;SHT35;22147;52.388;13.390;2024-03-17T10:19:24;11.40;50.49
47757;SHT35;22147;52.388;13.390;2024-03-17T10:22:01;11.60;50.25
47757;SHT35;22147;52.388;13.390;2024-03-17T10:24:30;11.32;48.96
47757;SHT35;22147;52.388;13.390;2024-03-17T10:27:03;10.81;50.10
47757;SHT35;22147;52.388;13.390;2024-03-17T10:29:34;10.56;50.77
47757;SHT35;22147;52.388;13.390;2024-03-17T10:32:15;10.80;50.02
47757;SHT35;22147;52.388;13.390;2024-03-17T10:34:43;11.25;50.10
47757;SHT35;22147;52.388;13.390;2024-03-17T10:37:20;11.98;47.28
47757;SHT35;22147;52.388;13.390;2024-03-17T10:39:54;11.90;48.04
47757;SHT35;22147;52.388;13.390;2024-03-17T10:42:29;11.63;49.02
47757;SHT35;22147;52.388;13.390;2024-03-17T10:45:00;11.50;49.74
47757;SHT35;22147;52.388;13.390;2024-03-17T10:47:29;10.95;50.95
47757;SHT35;22147;52.388;13.390;2024-03-17T10:50:01;10.74;51.66
47757;SHT35;22147;52.388;13.390;2024-03-17T10:52:36;10.36;53.07
47757;SHT35;22147;52.388;13.390;2024-03-17T10:55:08;9.98;52.08
47757;SHT35;22147;52.388;13.390;2024-03-17T10:57:47;9.74;52.26
47757;SHT35;22147;52.388;13.390;2024-03-17T11:00:22;9.87;51.88
47757;SHT35;22147;52.388;13.390;2024-03-17T11:02:53;9.90;52.95
47757;SHT35;22147;52.388;13.390;2024-03-17T11:05:30;10.02;52.82
47757;SHT35;22147;52.388;13.390;2024-03-17T11:08:03;10.15;49.98
47757;SHT35;22147;52.388;13.390;2024-03-17T11:10:35;10.33;50.53
47757;SHT35;22147;52.388;13.390;2024-03-17T11:13:05;10.38;51.60
47757;SHT35;22147;52.388;13.390;2024-03-17T11:15:52;10.87;49.49
47757;SHT35;22147;52.388;13.390;2024-03-17T11:18:38;10.87;51.89
47757;SHT35;22147;52.388;13.390;2024-03-17T11:21:27;11.46;51.67
47757;SHT35;22147;52.388;13.390;2024-03-17T11:24:01;11.89;48.67
47757;SHT35;22147;52.388;13.390;2024-03-17T11:26:34;11.94;48.27
47757;SHT35;22147;52.388;13.390;2024-03-17T11:29:04;11.86;48.80
47757;SHT35;22147;52.388;13.390;2024-03-17T11:31:45;11.66;49.18
47757;SHT35;22147;52.388;13.390;2024-03-17T11:34:37;11.39;47.79
47757;SHT35;22147;52.388;13.390;2024-03-17T11:37:42;10.06;49.12
47757;SHT35;22147;52.388;13.390;2024-03-17T11:40:25;10.01;49.87
47757;SHT35;22147;52.388;13.390;2024-03-17T11:43:03;10.01;50.06
47757;SHT35;22147;52.388;13.390;2024-03-17T11:45:33;10.22;50.85
47757;SHT35;22147;52.388;13.390;2024-03-17T11:48:06;10.77;51.01
47757;SHT35;22147;52.388;13.390;2024-03-17T11:50:41;11.18;47.99
47757;SHT35;22147;52.388;13.390;2024-03-17T11:53:11;11.73;47.21
47757;SHT35;22147;52.388;13.390;2024-03-17T11:55:49;11.65;47.63
47757;SHT35;22147;52.388;13.390;2024-03-17T11:58:18;11.76;47.23
47757;SHT35;22147;52.388;13.390;2024-03-17T12:00:52;11.73;48.39
47757;SHT35;22147;52.388;13.390;2024-03-17T12:03:21;11.91;45.70
47757;SHT35;22147;52.388;13.390;2024-03-17T12:05:50;12.01;46.80
47757;SHT35;22147;52.388;13.390;2024-03-17T12:08:22;12.17;44.82
47757;SHT35;22147;52.388;13.390;2024-03-17T12:10:52;12.45;46.04
47757;SHT35;22147;52.388;13.390;2024-03-17T12:13:21;12.65;46.02
47757;SHT35;22147;52.388;13.390;2024-03-17T12:15:50;11.56;46.17
47757;SHT35;22147;52.388;13.390;2024-03-17T12:18:20;10.98;47.98
47757;SHT35;22147;52.388;13.390;2024-03-17T12:20:49;10.81;50.04
47757;SHT35;22147;52.388;13.390;2024-03-17T12:23:18;10.98;49.22
47757;SHT35;22147;52.388;13.390;2024-03-17T12:25:50;10.83;48.42
47757;SHT35;22147;52.388;13.390;2024-03-17T12:28:19;10.80;47.79
47757;SHT35;22147;52.388;13.390;2024-03-17T12:30:49;10.63;48.91
47757;SHT35;22147;52.388;13.390;2024-03-17T12:33:19;10.52;49.10
47757;SHT35;22147;52.388;13.390;2024-03-17T12:35:49;10.61;49.87
47757;SHT35;22147;52.388;13.390;2024-03-17T12:38:22;10.33;49.66
47757;SHT35;22147;52.388;13.390;2024-03-17T12:40:51;10.01;49.48
47757;SHT35;22147;52.388;13.390;2024-03-17T12:43:20;9.77;49.04
47757;SHT35;22147;52.388;13.390;2024-03-17T12:45:49;9.54;50.45
47757;SHT35;22147;52.388;13.390;2024-03-17T12:48:19;9.53;49.75
47757;SHT35;22147;52.388;13.390;2024-03-17T12:50:48;9.63;50.64
47757;SHT35;22147;52.388;13.390;2024-03-17T12:53:19;9.46;50.23
47757;SHT35;22147;52.388;13.390;2024-03-17T12:55:54;9.47;49.65
47757;SHT35;22147;52.388;13.390;2024-03-17T12:58:41;9.51;48.91
47757;SHT35;22147;52.388;13.390;2024-03-17T13:01:29;9.36;50.72
47757;SHT35;22147;52.388;13.390;2024-03-17T13:04:05;9.99;48.85
47757;SHT35;22147;52.388;13.390;2024-03-17T13:06:38;10.71;47.90
47757;SHT35;22147;52.388;13.390;2024-03-17T13:09:07;11.02;47.28
47757;SHT35;22147;52.388;13.390;2024-03-17T13:11:39;11.28;47.84
47757;SHT35;22147;52.388;13.390;2024-03-17T13:14:09;11.63;46.35
47757;SHT35;22147;52.388;13.390;2024-03-17T13:16:44;11.74;43.93
47757;SHT35;22147;52.388;13.390;2024-03-17T13:19:13;12.14;43.24
47757;SHT35;22147;52.388;13.390;2024-03-17T13:21:42;12.65;44.03
47757;SHT35;22147;52.388;13.390;2024-03-17T13:24:11;13.01;41.38
47757;SHT35;22147;52.388;13.390;2024-03-17T13:26:40;12.05;43.66
47757;SHT35;22147;52.388;13.390;2024-03-17T13:29:09;11.40;44.56
47757;SHT35;22147;52.388;13.390;2024-03-17T13:31:38;10.81;45.19
47757;SHT35;22147;52.388;13.390;2024-03-17T13:34:07;10.38;46.20
47757;SHT35;22147;52.388;13.390;2024-03-17T13:36:37;10.13;46.58
47757;SHT35;22147;52.388;13.390;2024-03-17T13:39:06;10.03;47.78
47757;SHT35;22147;52.388;13.390;2024-03-17T13:41:38;9.77;49.03
47757;SHT35;22147;52.388;13.390;2024-03-17T13:44:07;9.71;48.25
47757;SHT35;22147;52.388;13.390;2024-03-17T13:46:36;9.40;47.29
47757;SHT35;22147;52.388;13.390;2024-03-17T13:49:09;9.61;47.71
47757;SHT35;22147;52.388;13.390;2024-03-17T13:51:38;9.39;48.95
47757;SHT35;22147;52.388;13.390;2024-03-17T13:54:08;9.33;49.61
47757;SHT35;22147;52.388;13.390;2024-03-17T13:56:37;9.51;49.13
47757;SHT35;22147;52.388;13.390;2024-03-17T13:59:06;9.67;48.28
47757;SHT35;22147;52.388;13.390;2024-03-17T14:01:36;10.36;48.57
47757;SHT35;22147;52.388;13.390;2024-03-17T14:04:06;11.11;44.96
47757;SHT35;22147;52.388;13.390;2024-03-17T14:06:35;11.01;45.12
47757;SHT35;22147;52.388;13.390;2024-03-17T14:09:04;10.46;47.61
47757;SHT35;22147;52.388;13.390;2024-03-17T14:11:35;9.92;48.85
47757;SHT35;22147;52.388;13.390;2024-03-17T14:14:02;9.50;49.39
47757;SHT35;22147;52.388;13.390;2024-03-17T14:16:31;9.27;50.41
47757;SHT35;22147;52.388;13.390;2024-03-17T14:19:01;9.06;50.61
47757;SHT35;22147;52.388;13.390;2024-03-17T14:21:29;9.18;50.27
47757;SHT35;22147;52.388;13.390;2024-03-17T14:23:56;9.60;49.16
47757;SHT35;22147;52.388;13.390;2024-03-17T14:26:25;10.25;48.42
47757;SHT35;22147;52.388;13.390;2024-03-17T14:28:53;10.49;47.72
47757;SHT35;22147;52.388;13.390;2024-03-17T14:31:21;10.50;46.25
47757;SHT35;22147;52.388;13.390;2024-03-17T14:33:50;10.25;46.50
47757;SHT35;22147;52.388;13.390;2024-03-17T14:36:18;10.15;46.96
47757;SHT35;22147;52.388;13.390;2024-03-17T14:38:50;10.01;47.39
47757;SHT35;22147;52.388;13.390;2024-03-17T14:41:18;10.30;47.57
47757;SHT35;22147;52.388;13.390;2024-03-17T14:43:46;10.94;45.31
47757;SHT35;22147;52.388;13.390;2024-03-17T14:46:16;11.59;44.35
47757;SHT35;22147;52.388;13.390;2024-03-17T14:48:48;12.04;43.74
47757;SHT35;22147;52.388;13.390;2024-03-17T14:51:20;11.97;42.23
47757;SHT35;22147;52.388;13.390;2024-03-17T14:53:52;11.89;42.93
47757;SHT35;22147;52.388;13.390;2024-03-17T14:56:21;11.66;43.99
47757;SHT35;22147;52.388;13.390;2024-03-17T14:58:50;11.36;44.41
47757;SHT35;22147;52.388;13.390;2024-03-17T15:01:19;11.31;44.51
47757;SHT35;22147;52.388;13.390;2024-03-17T15:03:49;11.46;44.41
47757;SHT35;22147;52.388;13.390;2024-03-17T15:06:18;12.03;43.52
47757;SHT35;22147;52.388;13.390;2024-03-17T15:08:47;12.86;41.83
47757;SHT35;22147;52.388;13.390;2024-03-17T15:11:17;12.87;41.37
47757;SHT35;22147;52.388;13.390;2024-03-17T15:13:46;13.19;41.71
47757;SHT35;22147;52.388;13.390;2024-03-17T15:16:16;13.54;41.62
47757;SHT35;22147;52.388;13.390;2024-03-17T15:18:45;14.03;39.52
47757;SHT35;22147;52.388;13.390;2024-03-17T15:21:14;13.63;39.26
47757;SHT35;22147;52.388;13.390;2024-03-17T15:23:46;13.54;38.80
47757;SHT35;22147;52.388;13.390;2024-03-17T15:26:17;13.70;40.38
47757;SHT35;22147;52.388;13.390;2024-03-17T15:28:48;14.06;38.94
47757;SHT35;22147;52.388;13.390;2024-03-17T15:31:17;13.76;38.69
47757;SHT35;22147;52.388;13.390;2024-03-17T15:33:46;12.90;40.19
47757;SHT35;22147;52.388;13.390;2024-03-17T15:36:17;12.77;41.90
47757;SHT35;22147;52.388;13.390;2024-03-17T15:38:48;12.63;42.07
47757;SHT35;22147;52.388;13.390;2024-03-17T15:41:18;12.68;42.06
47757;SHT35;22147;52.388;13.390;2024-03-17T15:43:47;12.44;41.26
47757;SHT35;22147;52.388;13.390;2024-03-17T15:46:20;12.20;41.33